SHMÚ vydal meteorologické výstrahy na Fog Display warnings

TAF

Aerodrome Forecast TAF

TAF description (Slovak)

28.05.2018 - 02:00 UTC

TAF LZSL 280200Z 2803/2812 VRB02KT 4000 BCFG FEW001
    PROB40 TEMPO 2803/2805 0300 FG BKN001
    BECMG 2805/2807 9999 FEW030
    TEMPO 2810/2812 FEW040CB SCT045=
TAF LZZI 280200Z 2803/2812 07003KT CAVOK
    TEMPO 2803/2805 7000 MIFG NSC
    BECMG 2807/2809 33005KT 9999 FEW040
    TEMPO 2810/2812 FEW040TCU SCT050=

27.05.2018 - 05:00 UTC (Včera)

TAF LZIB 270500Z 2706/2806 VRB02KT CAVOK
    BECMG 2706/2708 08005KT 9999 SCT030
    TEMPO 2710/2716 18008KT SCT035 BKN042
    BECMG 2716/2718 06004KT CAVOK
    PROB30 2802/2804 9999 MIFG NSC=
TAF LZKZ 270500Z 2706/2806 02004KT CAVOK
    BECMG 2706/2708 12004KT 9999 SCT032
    TEMPO 2710/2718 36015KT 6000 TSRA SCT040CB BKN050
    BECMG 2717/2719 01006KT CAVOK=
TAF LZTT 270500Z 2706/2806 28004KT 9999 BCFG FEW002
    BECMG 2706/2708 NSW SCT030
    TEMPO 2710/2718 VRB12KT 7000 TSRA SCT030CB BKN045
    BECMG 2718/2720 27005KT FEW050
    TEMPO 2722/2806 4000 BCFG SCT003
    PROB30 TEMPO 2800/2805 VRB02KT 0400 FG BKN002=

27.05.2018 - 05:00 UTC (Včera)

TAF LZSL 270500Z 2706/2715 VRB02KT 9999 FEW030
    PROB30 2706/2707 5000 BCFG SCT004
    BECMG 2708/2710 16005KT
    TEMPO 2710/2715 TSRA SCT032CB BKN045=
TAF LZPP 270500Z 2706/2715 02005KT CAVOK
    BECMG 2708/2710 29004KT 9999 SCT040
    PROB30 TEMPO 2712/2715 -TSRA SCT035CB BKN045=
TAF LZZI 270500Z 2706/2715 06004KT CAVOK
    BECMG 2707/2709 9999 SCT030
    PROB40 TEMPO 2710/2715 TSRA SCT032CB BKN045=

skok na menu ↑


skok na začiatok stránky ↑